sensor_id;sensor_type;location;lat;lon;timestamp;temperature;humidity
72202;SHT30;60105;54.956;73.412;2022-08-21T00:00:27;11.57;81.54
72202;SHT30;60105;54.956;73.412;2022-08-21T00:02:57;11.60;81.19
72202;SHT30;60105;54.956;73.412;2022-08-21T00:05:24;11.59;81.20
72202;SHT30;60105;54.956;73.412;2022-08-21T00:07:50;11.61;81.02
72202;SHT30;60105;54.956;73.412;2022-08-21T00:10:22;11.67;81.29
72202;SHT30;60105;54.956;73.412;2022-08-21T00:12:49;11.70;81.69
72202;SHT30;60105;54.956;73.412;2022-08-21T00:15:24;11.70;80.88
72202;SHT30;60105;54.956;73.412;2022-08-21T00:17:52;11.75;81.77
72202;SHT30;60105;54.956;73.412;2022-08-21T00:20:19;11.75;81.18
72202;SHT30;60105;54.956;73.412;2022-08-21T00:22:46;11.78;80.78
72202;SHT30;60105;54.956;73.412;2022-08-21T00:25:14;11.84;80.46
72202;SHT30;60105;54.956;73.412;2022-08-21T00:27:40;11.84;80.16
72202;SHT30;60105;54.956;73.412;2022-08-21T00:30:10;11.88;80.50
72202;SHT30;60105;54.956;73.412;2022-08-21T00:32:38;11.90;80.98
72202;SHT30;60105;54.956;73.412;2022-08-21T00:35:07;11.92;81.23
72202;SHT30;60105;54.956;73.412;2022-08-21T00:37:33;11.95;80.48
72202;SHT30;60105;54.956;73.412;2022-08-21T00:40:00;11.99;81.21
72202;SHT30;60105;54.956;73.412;2022-08-21T00:42:29;12.17;80.05
72202;SHT30;60105;54.956;73.412;2022-08-21T00:44:56;12.25;79.78
72202;SHT30;60105;54.956;73.412;2022-08-21T00:47:22;12.24;80.76
72202;SHT30;60105;54.956;73.412;2022-08-21T00:49:48;12.26;80.05
72202;SHT30;60105;54.956;73.412;2022-08-21T00:52:19;12.28;79.98
72202;SHT30;60105;54.956;73.412;2022-08-21T00:54:48;12.30;79.82
72202;SHT30;60105;54.956;73.412;2022-08-21T00:57:21;12.30;80.36
72202;SHT30;60105;54.956;73.412;2022-08-21T00:59:49;12.38;79.79
72202;SHT30;60105;54.956;73.412;2022-08-21T01:02:18;12.40;79.86
72202;SHT30;60105;54.956;73.412;2022-08-21T01:04:44;12.45;79.63
72202;SHT30;60105;54.956;73.412;2022-08-21T01:07:10;12.46;79.68
72202;SHT30;60105;54.956;73.412;2022-08-21T01:09:37;12.52;80.06
72202;SHT30;60105;54.956;73.412;2022-08-21T01:12:03;12.52;80.11
72202;SHT30;60105;54.956;73.412;2022-08-21T01:14:30;12.59;79.35
72202;SHT30;60105;54.956;73.412;2022-08-21T01:16:58;12.66;79.15
72202;SHT30;60105;54.956;73.412;2022-08-21T01:19:27;12.72;78.81
72202;SHT30;60105;54.956;73.412;2022-08-21T01:21:53;12.80;78.99
72202;SHT30;60105;54.956;73.412;2022-08-21T01:24:20;12.90;78.76
72202;SHT30;60105;54.956;73.412;2022-08-21T01:26:48;12.97;78.68
72202;SHT30;60105;54.956;73.412;2022-08-21T01:29:39;13.04;78.20
72202;SHT30;60105;54.956;73.412;2022-08-21T01:32:11;13.06;78.50
72202;SHT30;60105;54.956;73.412;2022-08-21T01:34:40;13.08;78.19
72202;SHT30;60105;54.956;73.412;2022-08-21T01:37:06;13.08;78.35
72202;SHT30;60105;54.956;73.412;2022-08-21T01:39:34;13.17;78.23
72202;SHT30;60105;54.956;73.412;2022-08-21T01:42:00;13.21;78.14
72202;SHT30;60105;54.956;73.412;2022-08-21T01:44:26;13.25;78.33
72202;SHT30;60105;54.956;73.412;2022-08-21T01:46:55;13.36;78.02
72202;SHT30;60105;54.956;73.412;2022-08-21T01:49:22;13.39;77.84
72202;SHT30;60105;54.956;73.412;2022-08-21T01:51:48;13.45;78.18
72202;SHT30;60105;54.956;73.412;2022-08-21T01:54:25;13.52;77.75
72202;SHT30;60105;54.956;73.412;2022-08-21T01:56:52;13.63;77.25
72202;SHT30;60105;54.956;73.412;2022-08-21T01:59:20;13.69;77.63
72202;SHT30;60105;54.956;73.412;2022-08-21T02:01:47;13.79;77.21
72202;SHT30;60105;54.956;73.412;2022-08-21T02:04:14;13.85;77.08
72202;SHT30;60105;54.956;73.412;2022-08-21T02:06:40;13.87;77.30
72202;SHT30;60105;54.956;73.412;2022-08-21T02:09:08;13.99;77.74
72202;SHT30;60105;54.956;73.412;2022-08-21T02:11:35;14.10;77.03
72202;SHT30;60105;54.956;73.412;2022-08-21T02:14:02;14.21;76.48
72202;SHT30;60105;54.956;73.412;2022-08-21T02:16:38;14.33;76.53
72202;SHT30;60105;54.956;73.412;2022-08-21T02:19:05;14.49;75.86
72202;SHT30;60105;54.956;73.412;2022-08-21T02:21:31;14.57;76.24
72202;SHT30;60105;54.956;73.412;2022-08-21T02:23:58;14.65;75.96
72202;SHT30;60105;54.956;73.412;2022-08-21T02:26:25;14.72;75.55
72202;SHT30;60105;54.956;73.412;2022-08-21T02:28:51;14.81;75.43
72202;SHT30;60105;54.956;73.412;2022-08-21T02:31:17;14.93;75.29
72202;SHT30;60105;54.956;73.412;2022-08-21T02:33:43;14.98;75.16
72202;SHT30;60105;54.956;73.412;2022-08-21T02:36:10;15.02;75.45
72202;SHT30;60105;54.956;73.412;2022-08-21T02:38:38;15.09;75.34
72202;SHT30;60105;54.956;73.412;2022-08-21T02:41:07;15.12;75.03
72202;SHT30;60105;54.956;73.412;2022-08-21T02:43:33;15.19;74.92
72202;SHT30;60105;54.956;73.412;2022-08-21T02:45:59;15.29;74.78
72202;SHT30;60105;54.956;73.412;2022-08-21T02:48:29;15.37;75.01
72202;SHT30;60105;54.956;73.412;2022-08-21T02:50:59;15.49;74.74
72202;SHT30;60105;54.956;73.412;2022-08-21T02:53:26;15.53;74.14
72202;SHT30;60105;54.956;73.412;2022-08-21T02:56:06;15.67;74.82
72202;SHT30;60105;54.956;73.412;2022-08-21T02:58:35;15.84;73.96
72202;SHT30;60105;54.956;73.412;2022-08-21T03:01:03;15.98;73.53
72202;SHT30;60105;54.956;73.412;2022-08-21T03:03:29;16.13;72.48
72202;SHT30;60105;54.956;73.412;2022-08-21T03:05:56;16.22;72.84
72202;SHT30;60105;54.956;73.412;2022-08-21T03:08:22;16.25;72.16
72202;SHT30;60105;54.956;73.412;2022-08-21T03:10:51;16.19;72.87
72202;SHT30;60105;54.956;73.412;2022-08-21T03:13:18;16.06;72.72
72202;SHT30;60105;54.956;73.412;2022-08-21T03:15:47;15.98;73.04
72202;SHT30;60105;54.956;73.412;2022-08-21T03:18:14;15.92;73.23
72202;SHT30;60105;54.956;73.412;2022-08-21T03:20:42;15.98;73.18
72202;SHT30;60105;54.956;73.412;2022-08-21T03:23:09;15.95;74.24
72202;SHT30;60105;54.956;73.412;2022-08-21T03:25:36;15.95;73.63
72202;SHT30;60105;54.956;73.412;2022-08-21T03:28:08;15.98;73.80
72202;SHT30;60105;54.956;73.412;2022-08-21T03:30:35;15.95;73.73
72202;SHT30;60105;54.956;73.412;2022-08-21T03:33:02;15.87;74.42
72202;SHT30;60105;54.956;73.412;2022-08-21T03:35:31;15.80;74.93
72202;SHT30;60105;54.956;73.412;2022-08-21T03:38:00;15.67;75.14
72202;SHT30;60105;54.956;73.412;2022-08-21T03:40:26;15.58;75.20
72202;SHT30;60105;54.956;73.412;2022-08-21T03:42:52;15.51;75.48
72202;SHT30;60105;54.956;73.412;2022-08-21T03:45:19;15.46;75.63
72202;SHT30;60105;54.956;73.412;2022-08-21T03:47:58;15.47;76.11
72202;SHT30;60105;54.956;73.412;2022-08-21T03:50:28;15.47;75.85
72202;SHT30;60105;54.956;73.412;2022-08-21T03:52:56;15.51;75.83
72202;SHT30;60105;54.956;73.412;2022-08-21T03:55:30;15.51;76.17
72202;SHT30;60105;54.956;73.412;2022-08-21T03:57:56;15.55;76.41
72202;SHT30;60105;54.956;73.412;2022-08-21T04:00:24;15.65;76.14
72202;SHT30;60105;54.956;73.412;2022-08-21T04:02:50;15.71;76.10
72202;SHT30;60105;54.956;73.412;2022-08-21T04:05:17;15.71;76.08
72202;SHT30;60105;54.956;73.412;2022-08-21T04:08:05;15.75;76.42
72202;SHT30;60105;54.956;73.412;2022-08-21T04:10:35;15.84;76.67
72202;SHT30;60105;54.956;73.412;2022-08-21T04:13:03;15.77;77.82
72202;SHT30;60105;54.956;73.412;2022-08-21T04:15:29;15.65;78.88
72202;SHT30;60105;54.956;73.412;2022-08-21T04:17:56;15.63;79.18
72202;SHT30;60105;54.956;73.412;2022-08-21T04:20:23;15.60;79.83
72202;SHT30;60105;54.956;73.412;2022-08-21T04:22:51;15.65;80.06
72202;SHT30;60105;54.956;73.412;2022-08-21T04:25:23;15.57;80.50
72202;SHT30;60105;54.956;73.412;2022-08-21T04:27:51;15.41;81.89
72202;SHT30;60105;54.956;73.412;2022-08-21T04:30:17;15.37;82.28
72202;SHT30;60105;54.956;73.412;2022-08-21T04:32:49;15.34;82.89
72202;SHT30;60105;54.956;73.412;2022-08-21T04:35:22;15.36;83.76
72202;SHT30;60105;54.956;73.412;2022-08-21T04:37:54;15.30;83.44
72202;SHT30;60105;54.956;73.412;2022-08-21T04:40:21;15.33;84.09
72202;SHT30;60105;54.956;73.412;2022-08-21T04:43:00;15.29;83.35
72202;SHT30;60105;54.956;73.412;2022-08-21T04:45:40;15.14;84.10
72202;SHT30;60105;54.956;73.412;2022-08-21T04:48:08;15.10;84.60
72202;SHT30;60105;54.956;73.412;2022-08-21T04:50:43;15.07;84.90
72202;SHT30;60105;54.956;73.412;2022-08-21T04:53:20;15.06;85.08
72202;SHT30;60105;54.956;73.412;2022-08-21T04:55:48;14.96;84.91
72202;SHT30;60105;54.956;73.412;2022-08-21T04:58:16;14.91;85.14
72202;SHT30;60105;54.956;73.412;2022-08-21T05:00:43;14.86;85.45
72202;SHT30;60105;54.956;73.412;2022-08-21T05:03:11;14.88;85.65
72202;SHT30;60105;54.956;73.412;2022-08-21T05:05:38;14.92;85.07
72202;SHT30;60105;54.956;73.412;2022-08-21T05:08:13;14.93;85.22
72202;SHT30;60105;54.956;73.412;2022-08-21T05:10:41;14.96;85.55
72202;SHT30;60105;54.956;73.412;2022-08-21T05:13:13;15.06;85.28
72202;SHT30;60105;54.956;73.412;2022-08-21T05:15:40;15.06;84.96
72202;SHT30;60105;54.956;73.412;2022-08-21T05:18:16;15.19;84.82
72202;SHT30;60105;54.956;73.412;2022-08-21T05:20:42;15.23;85.12
72202;SHT30;60105;54.956;73.412;2022-08-21T05:23:12;15.26;84.51
72202;SHT30;60105;54.956;73.412;2022-08-21T05:25:39;15.27;84.77
72202;SHT30;60105;54.956;73.412;2022-08-21T05:28:06;15.30;84.95
72202;SHT30;60105;54.956;73.412;2022-08-21T05:30:34;15.40;85.13
72202;SHT30;60105;54.956;73.412;2022-08-21T05:33:02;15.53;84.74
72202;SHT30;60105;54.956;73.412;2022-08-21T05:35:29;15.64;84.35
72202;SHT30;60105;54.956;73.412;2022-08-21T05:37:56;15.78;83.86
72202;SHT30;60105;54.956;73.412;2022-08-21T05:40:23;15.80;83.33
72202;SHT30;60105;54.956;73.412;2022-08-21T05:42:50;15.97;83.81
72202;SHT30;60105;54.956;73.412;2022-08-21T05:45:25;16.08;82.78
72202;SHT30;60105;54.956;73.412;2022-08-21T05:47:52;16.18;82.00
72202;SHT30;60105;54.956;73.412;2022-08-21T05:50:18;16.30;81.69
72202;SHT30;60105;54.956;73.412;2022-08-21T05:52:45;16.34;81.65
72202;SHT30;60105;54.956;73.412;2022-08-21T05:55:11;16.48;81.61
72202;SHT30;60105;54.956;73.412;2022-08-21T05:57:37;16.60;81.94
72202;SHT30;60105;54.956;73.412;2022-08-21T06:00:08;16.67;81.76
72202;SHT30;60105;54.956;73.412;2022-08-21T06:02:40;16.53;81.16
72202;SHT30;60105;54.956;73.412;2022-08-21T06:05:07;16.55;82.42
72202;SHT30;60105;54.956;73.412;2022-08-21T06:07:33;16.57;82.34
72202;SHT30;60105;54.956;73.412;2022-08-21T06:09:59;16.64;81.72
72202;SHT30;60105;54.956;73.412;2022-08-21T06:12:25;16.59;80.37
72202;SHT30;60105;54.956;73.412;2022-08-21T06:14:52;16.69;80.47
72202;SHT30;60105;54.956;73.412;2022-08-21T06:17:18;16.63;80.32
72202;SHT30;60105;54.956;73.412;2022-08-21T06:19:44;16.70;80.12
72202;SHT30;60105;54.956;73.412;2022-08-21T06:22:10;16.90;79.89
72202;SHT30;60105;54.956;73.412;2022-08-21T06:24:45;17.00;79.35
72202;SHT30;60105;54.956;73.412;2022-08-21T06:27:15;17.10;79.66
72202;SHT30;60105;54.956;73.412;2022-08-21T06:29:43;17.21;79.70
72202;SHT30;60105;54.956;73.412;2022-08-21T06:32:12;17.28;78.37
72202;SHT30;60105;54.956;73.412;2022-08-21T06:34:43;17.32;78.27
72202;SHT30;60105;54.956;73.412;2022-08-21T06:37:10;17.29;77.74
72202;SHT30;60105;54.956;73.412;2022-08-21T06:39:37;17.49;77.03
72202;SHT30;60105;54.956;73.412;2022-08-21T06:42:04;17.66;78.12
72202;SHT30;60105;54.956;73.412;2022-08-21T06:44:32;17.89;74.86
72202;SHT30;60105;54.956;73.412;2022-08-21T06:46:59;18.01;75.47
72202;SHT30;60105;54.956;73.412;2022-08-21T06:49:25;17.93;76.05
72202;SHT30;60105;54.956;73.412;2022-08-21T06:51:51;17.94;75.58
72202;SHT30;60105;54.956;73.412;2022-08-21T06:54:17;17.97;75.05
72202;SHT30;60105;54.956;73.412;2022-08-21T06:56:46;17.90;75.45
72202;SHT30;60105;54.956;73.412;2022-08-21T06:59:12;17.90;74.69
72202;SHT30;60105;54.956;73.412;2022-08-21T07:01:44;17.93;74.56
72202;SHT30;60105;54.956;73.412;2022-08-21T07:04:10;18.08;74.54
72202;SHT30;60105;54.956;73.412;2022-08-21T07:06:43;18.31;73.84
72202;SHT30;60105;54.956;73.412;2022-08-21T07:09:09;18.44;73.30
72202;SHT30;60105;54.956;73.412;2022-08-21T07:11:37;18.45;73.66
72202;SHT30;60105;54.956;73.412;2022-08-21T07:14:03;18.43;73.99
72202;SHT30;60105;54.956;73.412;2022-08-21T07:16:30;18.49;73.36
72202;SHT30;60105;54.956;73.412;2022-08-21T07:19:02;18.52;72.77
72202;SHT30;60105;54.956;73.412;2022-08-21T07:21:33;18.31;74.19
72202;SHT30;60105;54.956;73.412;2022-08-21T07:24:01;18.04;75.72
72202;SHT30;60105;54.956;73.412;2022-08-21T07:26:27;17.91;77.08
72202;SHT30;60105;54.956;73.412;2022-08-21T07:28:54;17.82;77.70
72202;SHT30;60105;54.956;73.412;2022-08-21T07:31:28;17.66;79.34
72202;SHT30;60105;54.956;73.412;2022-08-21T07:33:55;17.36;80.53
72202;SHT30;60105;54.956;73.412;2022-08-21T07:36:21;17.31;80.50
72202;SHT30;60105;54.956;73.412;2022-08-21T07:38:47;17.22;81.40
72202;SHT30;60105;54.956;73.412;2022-08-21T07:41:20;17.27;81.65
72202;SHT30;60105;54.956;73.412;2022-08-21T07:43:47;17.27;81.81
72202;SHT30;60105;54.956;73.412;2022-08-21T07:46:14;17.10;82.59
72202;SHT30;60105;54.956;73.412;2022-08-21T07:48:41;16.98;81.10
72202;SHT30;60105;54.956;73.412;2022-08-21T07:51:11;16.97;81.50
72202;SHT30;60105;54.956;73.412;2022-08-21T07:53:38;16.98;81.22
72202;SHT30;60105;54.956;73.412;2022-08-21T07:56:06;16.97;80.49
72202;SHT30;60105;54.956;73.412;2022-08-21T07:58:34;16.84;80.71
72202;SHT30;60105;54.956;73.412;2022-08-21T08:01:00;16.77;80.47
72202;SHT30;60105;54.956;73.412;2022-08-21T08:03:26;16.66;80.37
72202;SHT30;60105;54.956;73.412;2022-08-21T08:05:53;16.63;80.36
72202;SHT30;60105;54.956;73.412;2022-08-21T08:08:19;16.70;80.41
72202;SHT30;60105;54.956;73.412;2022-08-21T08:10:45;16.83;79.44
72202;SHT30;60105;54.956;73.412;2022-08-21T08:13:22;16.98;78.68
72202;SHT30;60105;54.956;73.412;2022-08-21T08:15:48;17.15;78.67
72202;SHT30;60105;54.956;73.412;2022-08-21T08:18:24;17.21;77.92
72202;SHT30;60105;54.956;73.412;2022-08-21T08:20:50;17.21;77.80
72202;SHT30;60105;54.956;73.412;2022-08-21T08:23:27;17.11;78.73
72202;SHT30;60105;54.956;73.412;2022-08-21T08:25:53;17.01;78.28
72202;SHT30;60105;54.956;73.412;2022-08-21T08:28:19;16.90;78.96
72202;SHT30;60105;54.956;73.412;2022-08-21T08:30:47;16.76;78.38
72202;SHT30;60105;54.956;73.412;2022-08-21T08:33:15;16.45;78.23
72202;SHT30;60105;54.956;73.412;2022-08-21T08:35:47;16.29;79.27
72202;SHT30;60105;54.956;73.412;2022-08-21T08:38:15;16.22;79.21
72202;SHT30;60105;54.956;73.412;2022-08-21T08:40:55;16.11;79.66
72202;SHT30;60105;54.956;73.412;2022-08-21T08:43:28;16.08;80.08
72202;SHT30;60105;54.956;73.412;2022-08-21T08:45:56;16.13;79.19
72202;SHT30;60105;54.956;73.412;2022-08-21T08:48:46;16.19;79.26
72202;SHT30;60105;54.956;73.412;2022-08-21T08:51:25;16.28;78.14
72202;SHT30;60105;54.956;73.412;2022-08-21T08:53:59;16.33;78.36
72202;SHT30;60105;54.956;73.412;2022-08-21T08:56:29;16.38;78.36
72202;SHT30;60105;54.956;73.412;2022-08-21T08:59:02;16.48;77.69
72202;SHT30;60105;54.956;73.412;2022-08-21T09:01:28;16.43;76.98
72202;SHT30;60105;54.956;73.412;2022-08-21T09:03:56;16.32;77.66
72202;SHT30;60105;54.956;73.412;2022-08-21T09:09:48;16.19;78.01
72202;SHT30;60105;54.956;73.412;2022-08-21T09:18:18;15.92;78.72
72202;SHT30;60105;54.956;73.412;2022-08-21T09:20:58;15.92;78.32
72202;SHT30;60105;54.956;73.412;2022-08-21T09:26:14;16.08;75.54
72202;SHT30;60105;54.956;73.412;2022-08-21T09:28:41;16.18;75.38
72202;SHT30;60105;54.956;73.412;2022-08-21T09:31:18;16.28;73.84
72202;SHT30;60105;54.956;73.412;2022-08-21T09:33:46;16.15;74.17
72202;SHT30;60105;54.956;73.412;2022-08-21T09:36:24;16.25;74.08
72202;SHT30;60105;54.956;73.412;2022-08-21T09:38:54;16.19;74.04
72202;SHT30;60105;54.956;73.412;2022-08-21T09:41:28;16.19;74.65
72202;SHT30;60105;54.956;73.412;2022-08-21T09:43:54;16.15;74.58
72202;SHT30;60105;54.956;73.412;2022-08-21T09:46:24;16.11;74.69
72202;SHT30;60105;54.956;73.412;2022-08-21T09:48:52;16.21;75.05
72202;SHT30;60105;54.956;73.412;2022-08-21T09:51:32;16.18;73.56
72202;SHT30;60105;54.956;73.412;2022-08-21T09:56:35;16.02;74.07
72202;SHT30;60105;54.956;73.412;2022-08-21T09:59:29;16.06;74.10
72202;SHT30;60105;54.956;73.412;2022-08-21T10:01:59;16.06;72.90
72202;SHT30;60105;54.956;73.412;2022-08-21T10:04:34;16.13;73.24
72202;SHT30;60105;54.956;73.412;2022-08-21T10:07:10;16.15;72.59
72202;SHT30;60105;54.956;73.412;2022-08-21T10:09:37;16.19;72.72
72202;SHT30;60105;54.956;73.412;2022-08-21T10:12:21;16.12;72.88
72202;SHT30;60105;54.956;73.412;2022-08-21T10:18:12;16.12;73.08
72202;SHT30;60105;54.956;73.412;2022-08-21T10:20:45;16.11;73.38
72202;SHT30;60105;54.956;73.412;2022-08-21T10:23:35;16.04;73.79
72202;SHT30;60105;54.956;73.412;2022-08-21T10:32:04;15.80;74.76
72202;SHT30;60105;54.956;73.412;2022-08-21T10:46:12;15.34;74.90
72202;SHT30;60105;54.956;73.412;2022-08-21T10:48:58;15.23;74.87
72202;SHT30;60105;54.956;73.412;2022-08-21T10:54:52;15.24;73.80
72202;SHT30;60105;54.956;73.412;2022-08-21T11:06:02;15.46;71.30
72202;SHT30;60105;54.956;73.412;2022-08-21T11:11:10;15.70;70.65
72202;SHT30;60105;54.956;73.412;2022-08-21T11:13:43;15.84;70.43
72202;SHT30;60105;54.956;73.412;2022-08-21T11:19:02;16.32;68.89
72202;SHT30;60105;54.956;73.412;2022-08-21T11:21:42;16.33;69.00
72202;SHT30;60105;54.956;73.412;2022-08-21T11:24:38;16.46;68.73
72202;SHT30;60105;54.956;73.412;2022-08-21T11:29:46;16.66;68.26
72202;SHT30;60105;54.956;73.412;2022-08-21T11:54:30;15.85;70.35
72202;SHT30;60105;54.956;73.412;2022-08-21T11:57:07;15.95;69.99
72202;SHT30;60105;54.956;73.412;2022-08-21T12:02:19;15.95;69.25
72202;SHT30;60105;54.956;73.412;2022-08-21T12:05:00;16.04;69.06
72202;SHT30;60105;54.956;73.412;2022-08-21T12:07:39;16.12;68.26
72202;SHT30;60105;54.956;73.412;2022-08-21T12:10:19;16.11;67.95
72202;SHT30;60105;54.956;73.412;2022-08-21T12:12:48;16.12;67.41
72202;SHT30;60105;54.956;73.412;2022-08-21T12:17:54;16.22;67.46
72202;SHT30;60105;54.956;73.412;2022-08-21T12:26:00;16.08;67.58
72202;SHT30;60105;54.956;73.412;2022-08-21T12:28:27;16.02;67.59
72202;SHT30;60105;54.956;73.412;2022-08-21T12:31:04;16.00;68.02
72202;SHT30;60105;54.956;73.412;2022-08-21T12:33:35;15.98;67.94
72202;SHT30;60105;54.956;73.412;2022-08-21T12:36:15;15.98;67.69
72202;SHT30;60105;54.956;73.412;2022-08-21T12:38:54;15.85;67.97
72202;SHT30;60105;54.956;73.412;2022-08-21T12:44:17;15.87;67.60
72202;SHT30;60105;54.956;73.412;2022-08-21T12:46:51;15.90;66.59
72202;SHT30;60105;54.956;73.412;2022-08-21T12:49:36;15.82;65.91
72202;SHT30;60105;54.956;73.412;2022-08-21T12:54:47;15.72;63.53
72202;SHT30;60105;54.956;73.412;2022-08-21T12:57:20;15.61;63.91
72202;SHT30;60105;54.956;73.412;2022-08-21T13:00:00;15.57;64.29
72202;SHT30;60105;54.956;73.412;2022-08-21T13:02:30;15.53;65.07
72202;SHT30;60105;54.956;73.412;2022-08-21T13:04:58;15.49;64.82
72202;SHT30;60105;54.956;73.412;2022-08-21T13:07:30;15.43;64.05
72202;SHT30;60105;54.956;73.412;2022-08-21T13:09:59;15.34;64.26
72202;SHT30;60105;54.956;73.412;2022-08-21T13:12:26;15.27;64.47
72202;SHT30;60105;54.956;73.412;2022-08-21T13:14:57;15.20;63.48
72202;SHT30;60105;54.956;73.412;2022-08-21T13:17:25;15.16;62.92
72202;SHT30;60105;54.956;73.412;2022-08-21T13:20:27;15.16;62.68
72202;SHT30;60105;54.956;73.412;2022-08-21T13:22:54;15.13;62.78
72202;SHT30;60105;54.956;73.412;2022-08-21T13:25:24;15.06;63.08
72202;SHT30;60105;54.956;73.412;2022-08-21T13:28:17;15.09;63.02
72202;SHT30;60105;54.956;73.412;2022-08-21T13:30:51;15.06;62.96
72202;SHT30;60105;54.956;73.412;2022-08-21T13:33:20;15.04;62.61
72202;SHT30;60105;54.956;73.412;2022-08-21T13:38:34;14.98;62.71
72202;SHT30;60105;54.956;73.412;2022-08-21T13:41:04;14.85;63.41
72202;SHT30;60105;54.956;73.412;2022-08-21T13:43:34;14.76;63.62
72202;SHT30;60105;54.956;73.412;2022-08-21T13:46:06;14.81;63.66
72202;SHT30;60105;54.956;73.412;2022-08-21T13:48:34;14.85;63.83
72202;SHT30;60105;54.956;73.412;2022-08-21T13:51:01;14.83;63.55
72202;SHT30;60105;54.956;73.412;2022-08-21T13:53:36;14.76;64.00
72202;SHT30;60105;54.956;73.412;2022-08-21T13:56:04;14.75;64.36
72202;SHT30;60105;54.956;73.412;2022-08-21T13:58:45;14.71;64.52
72202;SHT30;60105;54.956;73.412;2022-08-21T14:01:23;14.72;64.72
72202;SHT30;60105;54.956;73.412;2022-08-21T14:03:53;14.68;64.49
72202;SHT30;60105;54.956;73.412;2022-08-21T14:06:26;14.68;64.72
72202;SHT30;60105;54.956;73.412;2022-08-21T14:09:00;14.67;64.54
72202;SHT30;60105;54.956;73.412;2022-08-21T14:11:32;14.64;64.35
72202;SHT30;60105;54.956;73.412;2022-08-21T14:14:06;14.61;64.34
72202;SHT30;60105;54.956;73.412;2022-08-21T14:16:53;14.61;64.09
72202;SHT30;60105;54.956;73.412;2022-08-21T14:19:41;14.44;64.27
72202;SHT30;60105;54.956;73.412;2022-08-21T14:25:10;14.35;63.61
72202;SHT30;60105;54.956;73.412;2022-08-21T14:27:43;14.35;64.05
72202;SHT30;60105;54.956;73.412;2022-08-21T14:30:16;14.35;63.16
72202;SHT30;60105;54.956;73.412;2022-08-21T14:32:43;14.31;62.95
72202;SHT30;60105;54.956;73.412;2022-08-21T14:35:16;14.28;62.92
72202;SHT30;60105;54.956;73.412;2022-08-21T14:37:49;14.25;62.46
72202;SHT30;60105;54.956;73.412;2022-08-21T14:40:26;14.13;62.51
72202;SHT30;60105;54.956;73.412;2022-08-21T14:42:53;14.12;62.15
72202;SHT30;60105;54.956;73.412;2022-08-21T14:45:26;14.02;61.57
72202;SHT30;60105;54.956;73.412;2022-08-21T14:47:53;14.02;62.33
72202;SHT30;60105;54.956;73.412;2022-08-21T14:50:25;13.91;62.18
72202;SHT30;60105;54.956;73.412;2022-08-21T14:52:51;13.82;62.57
72202;SHT30;60105;54.956;73.412;2022-08-21T14:55:18;13.77;62.80
72202;SHT30;60105;54.956;73.412;2022-08-21T14:57:47;13.65;63.41
72202;SHT30;60105;54.956;73.412;2022-08-21T15:00:16;13.61;63.39
72202;SHT30;60105;54.956;73.412;2022-08-21T15:02:44;13.51;63.87
72202;SHT30;60105;54.956;73.412;2022-08-21T15:05:10;13.41;64.04
72202;SHT30;60105;54.956;73.412;2022-08-21T15:07:37;13.34;64.49
72202;SHT30;60105;54.956;73.412;2022-08-21T15:10:04;13.27;64.35
72202;SHT30;60105;54.956;73.412;2022-08-21T15:12:41;13.25;64.70
72202;SHT30;60105;54.956;73.412;2022-08-21T15:15:08;13.12;65.53
72202;SHT30;60105;54.956;73.412;2022-08-21T15:17:35;13.04;65.87
72202;SHT30;60105;54.956;73.412;2022-08-21T15:20:03;12.98;66.39
72202;SHT30;60105;54.956;73.412;2022-08-21T15:22:30;12.97;66.24
72202;SHT30;60105;54.956;73.412;2022-08-21T15:24:56;12.94;66.63
72202;SHT30;60105;54.956;73.412;2022-08-21T15:27:23;12.87;69.06
72202;SHT30;60105;54.956;73.412;2022-08-21T15:29:49;12.84;66.94
72202;SHT30;60105;54.956;73.412;2022-08-21T15:32:23;12.84;67.21
72202;SHT30;60105;54.956;73.412;2022-08-21T15:34:51;12.81;67.92
72202;SHT30;60105;54.956;73.412;2022-08-21T15:37:18;12.70;68.00
72202;SHT30;60105;54.956;73.412;2022-08-21T15:39:44;12.57;68.31
72202;SHT30;60105;54.956;73.412;2022-08-21T15:42:12;12.59;68.27
72202;SHT30;60105;54.956;73.412;2022-08-21T15:44:48;12.56;68.08
72202;SHT30;60105;54.956;73.412;2022-08-21T15:47:29;12.59;68.39
72202;SHT30;60105;54.956;73.412;2022-08-21T15:49:56;12.55;68.56
72202;SHT30;60105;54.956;73.412;2022-08-21T15:52:22;12.46;68.62
72202;SHT30;60105;54.956;73.412;2022-08-21T15:54:49;12.48;68.73
72202;SHT30;60105;54.956;73.412;2022-08-21T15:57:19;12.39;68.69
72202;SHT30;60105;54.956;73.412;2022-08-21T15:59:52;12.35;69.40
72202;SHT30;60105;54.956;73.412;2022-08-21T16:02:24;12.28;69.10
72202;SHT30;60105;54.956;73.412;2022-08-21T16:04:57;12.26;69.70
72202;SHT30;60105;54.956;73.412;2022-08-21T16:07:23;12.24;69.18
72202;SHT30;60105;54.956;73.412;2022-08-21T16:09:59;12.17;69.46
72202;SHT30;60105;54.956;73.412;2022-08-21T16:12:30;12.06;70.17
72202;SHT30;60105;54.956;73.412;2022-08-21T16:15:00;12.08;69.65
72202;SHT30;60105;54.956;73.412;2022-08-21T16:17:32;12.12;69.59
72202;SHT30;60105;54.956;73.412;2022-08-21T16:20:00;12.12;70.01
72202;SHT30;60105;54.956;73.412;2022-08-21T16:22:27;12.09;69.12
72202;SHT30;60105;54.956;73.412;2022-08-21T16:24:53;12.15;69.07
72202;SHT30;60105;54.956;73.412;2022-08-21T16:27:23;12.17;68.74
72202;SHT30;60105;54.956;73.412;2022-08-21T16:29:50;12.09;68.81
72202;SHT30;60105;54.956;73.412;2022-08-21T16:32:21;12.12;68.72
72202;SHT30;60105;54.956;73.412;2022-08-21T16:34:48;12.15;70.09
72202;SHT30;60105;54.956;73.412;2022-08-21T16:37:20;12.11;69.04
72202;SHT30;60105;54.956;73.412;2022-08-21T16:39:57;12.09;68.49
72202;SHT30;60105;54.956;73.412;2022-08-21T16:42:24;12.14;68.13
72202;SHT30;60105;54.956;73.412;2022-08-21T16:44:52;12.11;67.93
72202;SHT30;60105;54.956;73.412;2022-08-21T16:47:18;12.17;67.86
72202;SHT30;60105;54.956;73.412;2022-08-21T16:49:44;12.17;67.59
72202;SHT30;60105;54.956;73.412;2022-08-21T16:52:22;12.19;67.17
72202;SHT30;60105;54.956;73.412;2022-08-21T16:54:49;12.19;66.88
72202;SHT30;60105;54.956;73.412;2022-08-21T16:57:15;12.21;66.78
72202;SHT30;60105;54.956;73.412;2022-08-21T16:59:41;12.22;66.02
72202;SHT30;60105;54.956;73.412;2022-08-21T17:02:32;12.24;65.79
72202;SHT30;60105;54.956;73.412;2022-08-21T17:04:58;12.29;64.95
72202;SHT30;60105;54.956;73.412;2022-08-21T17:07:27;12.36;64.37
72202;SHT30;60105;54.956;73.412;2022-08-21T17:09:54;12.39;64.31
72202;SHT30;60105;54.956;73.412;2022-08-21T17:12:20;12.40;63.27